Time;durP1;ratioP1;P1;durP2;ratioP2;P2;SDS_P1;SDS_P2;PMS_P1;PMS_P2;Temp;Humidity;BMP_temperature;BMP_pressure;BME280_temperature;BME280_humidity;BME280_pressure;Samples;Min_cycle;Max_cycle;Signal;HPM_P1;HPM_P2
2022/01/10 00:01:56;;;;;;;111.68;48.75;;;3.60;99.90;;;;;;5027909;28;20112;-50
2022/01/10 00:04:22;;;;;;;40.88;18.15;;;3.60;99.90;;;;;;5025292;28;20025;-52
2022/01/10 00:06:47;;;;;;;25.50;12.00;;;3.60;99.90;;;;;;5028120;28;20033;-51
2022/01/10 00:09:13;;;;;;;74.32;33.08;;;3.50;99.90;;;;;;5027839;28;20029;-52
2022/01/10 00:11:39;;;;;;;26.95;10.48;;;3.50;99.90;;;;;;5027914;28;20487;-51
2022/01/10 00:14:04;;;;;;;25.98;8.05;;;3.50;99.90;;;;;;5026671;28;20040;-51
2022/01/10 00:16:30;;;;;;;27.05;10.65;;;3.50;99.90;;;;;;5027666;28;20029;-50
2022/01/10 00:18:56;;;;;;;22.75;9.73;;;3.50;99.90;;;;;;5024333;28;20028;-49
2022/01/10 00:21:21;;;;;;;28.02;10.45;;;3.50;99.90;;;;;;5024269;28;20030;-49
2022/01/10 00:23:47;;;;;;;16.98;6.55;;;3.50;99.90;;;;;;5022787;28;20079;-47
2022/01/10 00:26:12;;;;;;;15.85;4.45;;;3.50;99.90;;;;;;5025438;28;20038;-48
2022/01/10 00:28:38;;;;;;;17.08;6.20;;;3.50;99.90;;;;;;5025740;28;20112;-48
2022/01/10 00:31:03;;;;;;;15.80;5.85;;;3.50;99.90;;;;;;5027476;28;20100;-49
2022/01/10 00:33:29;;;;;;;7.38;3.92;;;3.50;99.90;;;;;;5028223;28;20552;-47
2022/01/10 00:35:55;;;;;;;15.43;3.97;;;3.50;99.90;;;;;;5027235;28;20025;-52
2022/01/10 00:38:20;;;;;;;8.73;4.13;;;3.60;99.90;;;;;;5027473;28;20024;-48
2022/01/10 00:40:49;;;;;;;15.40;4.10;;;3.60;99.90;;;;;;5028073;28;20025;-49
2022/01/10 00:43:19;;;;;;;16.70;4.38;;;3.60;99.90;;;;;;5027884;28;20048;-49
2022/01/10 00:45:44;;;;;;;10.02;4.00;;;3.60;99.90;;;;;;5027692;28;20487;-47
2022/01/10 00:48:10;;;;;;;8.60;3.80;;;3.60;99.90;;;;;;5027344;28;20108;-55
2022/01/10 00:50:36;;;;;;;16.02;4.93;;;3.60;99.90;;;;;;5027959;28;20025;-54
2022/01/10 00:53:02;;;;;;;13.30;3.85;;;3.60;99.90;;;;;;5027575;28;20032;-52
2022/01/10 00:55:29;;;;;;;11.60;4.18;;;3.60;99.90;;;;;;5026973;28;20030;-49
2022/01/10 00:57:56;;;;;;;14.95;4.00;;;3.60;99.90;;;;;;5027244;28;20018;-47
2022/01/10 01:00:22;;;;;;;8.75;4.57;;;3.50;99.90;;;;;;5026846;28;20079;-53
2022/01/10 01:02:48;;;;;;;10.82;4.50;;;3.50;99.90;;;;;;5026070;28;20025;-49
2022/01/10 01:05:17;;;;;;;13.60;4.65;;;3.60;99.90;;;;;;5026100;28;20033;-48
2022/01/10 01:07:42;;;;;;;12.77;3.90;;;3.60;99.90;;;;;;5027129;28;20028;-49
2022/01/10 01:12:58;;;;;;;13.93;4.45;;;3.50;99.90;;;;;;5023988;28;20114;-51
2022/01/10 01:15:29;;;;;;;12.80;4.90;;;3.50;99.90;;;;;;5027971;28;20163;-47
2022/01/10 01:25:49;;;;;;;14.82;7.72;;;3.50;99.90;;;;;;5027350;28;20044;-51
2022/01/10 01:28:14;;;;;;;12.63;8.00;;;3.50;99.90;;;;;;5027327;28;20026;-48
2022/01/10 01:30:42;;;;;;;11.32;7.13;;;3.50;99.90;;;;;;5027943;28;20048;-48
2022/01/10 01:33:08;;;;;;;15.65;8.15;;;3.50;99.90;;;;;;5024430;28;20504;-47
2022/01/10 01:35:35;;;;;;;14.82;7.72;;;3.50;99.90;;;;;;5026106;28;20072;-49
2022/01/10 01:38:01;;;;;;;9.55;7.03;;;3.40;99.90;;;;;;5026182;28;20052;-48
2022/01/10 01:40:29;;;;;;;17.75;7.93;;;3.40;99.90;;;;;;5024495;28;20487;-49
2022/01/10 01:42:56;;;;;;;13.32;7.97;;;3.40;99.90;;;;;;5025374;28;20588;-47
2022/01/10 01:45:37;;;;;;;16.25;8.90;;;3.40;99.90;;;;;;5025980;28;20029;-49
2022/01/10 01:48:03;;;;;;;15.18;8.23;;;3.40;99.90;;;;;;5024917;28;20060;-49
2022/01/10 01:50:28;;;;;;;14.32;8.02;;;3.40;99.90;;;;;;5009187;28;20080;-54
2022/01/10 01:52:54;;;;;;;11.48;6.68;;;3.40;99.90;;;;;;5011308;28;20388;-53
2022/01/10 01:55:19;;;;;;;10.48;6.85;;;3.40;99.90;;;;;;5029214;28;20025;-51
2022/01/10 01:57:46;;;;;;;14.35;7.00;;;3.40;99.90;;;;;;5028737;28;20026;-51
2022/01/10 02:00:12;;;;;;;20.23;7.88;;;3.40;99.90;;;;;;5028110;28;20034;-49
2022/01/10 02:02:38;;;;;;;11.82;7.35;;;3.40;99.90;;;;;;5028439;28;20025;-48
2022/01/10 02:05:03;;;;;;;11.52;7.35;;;3.40;99.90;;;;;;5030704;28;20529;-52
2022/01/10 02:07:29;;;;;;;10.18;6.35;;;3.40;99.90;;;;;;5030050;28;20605;-51
2022/01/10 02:09:55;;;;;;;12.73;6.78;;;3.40;99.90;;;;;;5030422;28;20519;-48
2022/01/10 02:12:20;;;;;;;10.73;5.70;;;3.40;99.90;;;;;;5031065;28;20506;-51
2022/01/10 02:14:48;;;;;;;11.38;6.63;;;3.40;99.90;;;;;;5031312;28;20518;-50
2022/01/10 02:17:19;;;;;;;12.20;7.20;;;3.40;99.90;;;;;;5031017;28;20014;-51
2022/01/10 02:19:58;;;;;;;12.55;7.00;;;3.50;99.90;;;;;;5030800;28;20522;-51
2022/01/10 02:22:24;;;;;;;15.30;7.70;;;3.40;99.90;;;;;;5030214;28;20014;-48
2022/01/10 02:24:50;;;;;;;10.48;6.30;;;3.50;99.90;;;;;;5030871;28;20032;-50
2022/01/10 02:27:15;;;;;;;13.82;7.15;;;3.50;99.90;;;;;;5030287;28;20032;-47
2022/01/10 02:29:41;;;;;;;17.02;8.52;;;3.50;99.90;;;;;;5030669;28;20037;-51
2022/01/10 02:32:07;;;;;;;22.45;10.20;;;3.50;99.90;;;;;;5029851;28;20025;-51
2022/01/10 02:34:32;;;;;;;22.55;11.93;;;3.40;99.90;;;;;;5029984;28;20033;-47
2022/01/10 02:37:00;;;;;;;19.88;11.25;;;3.40;99.90;;;;;;5030160;28;20025;-47
2022/01/10 02:39:26;;;;;;;18.02;12.23;;;3.30;99.90;;;;;;5029341;28;20423;-49
2022/01/10 02:41:52;;;;;;;22.65;11.05;;;3.20;99.90;;;;;;5029904;28;20068;-49
2022/01/10 02:44:18;;;;;;;17.45;12.05;;;3.10;99.90;;;;;;5029582;28;20033;-51
2022/01/10 02:46:45;;;;;;;21.40;12.13;;;3.10;99.90;;;;;;5025646;28;20457;-47
2022/01/10 02:49:22;;;;;;;20.23;12.48;;;3.10;99.90;;;;;;5030341;28;20079;-47
2022/01/10 02:51:48;;;;;;;29.77;13.38;;;3.00;99.90;;;;;;5030232;28;20529;-50
2022/01/10 02:54:14;;;;;;;23.58;11.55;;;3.00;99.90;;;;;;5029556;28;20030;-51
2022/01/10 02:56:47;;;;;;;29.85;12.15;;;2.90;99.90;;;;;;5029425;28;20033;-48
2022/01/10 02:59:13;;;;;;;18.75;10.73;;;2.90;99.90;;;;;;5030488;28;20075;-47
2022/01/10 03:01:39;;;;;;;21.35;11.82;;;2.90;99.90;;;;;;5030121;28;20025;-46
2022/01/10 03:04:04;;;;;;;18.92;10.75;;;2.80;99.90;;;;;;5029083;28;20491;-48
2022/01/10 03:06:31;;;;;;;20.00;10.02;;;2.70;99.90;;;;;;5026620;28;20037;-50
2022/01/10 03:09:04;;;;;;;15.07;9.45;;;2.70;99.90;;;;;;5029997;28;20403;-49
2022/01/10 03:11:29;;;;;;;17.77;8.43;;;2.60;99.90;;;;;;5028587;28;20037;-49
2022/01/10 03:13:55;;;;;;;13.50;9.25;;;2.60;99.90;;;;;;5029036;28;20091;-47
2022/01/10 03:16:21;;;;;;;11.20;8.48;;;2.60;99.90;;;;;;5026140;28;20049;-51
2022/01/10 03:18:46;;;;;;;10.02;8.02;;;2.50;99.90;;;;;;5028725;28;20506;-52
2022/01/10 03:21:12;;;;;;;10.65;7.95;;;2.50;99.90;;;;;;5029563;28;20538;-46
2022/01/10 03:23:37;;;;;;;10.18;8.10;;;2.40;99.90;;;;;;5029291;28;20288;-52
2022/01/10 03:26:03;;;;;;;10.77;8.50;;;2.30;99.90;;;;;;5029529;28;20015;-46
2022/01/10 03:28:29;;;;;;;9.32;8.30;;;2.30;99.90;;;;;;5028721;28;20021;-51
2022/01/10 03:30:54;;;;;;;10.15;8.27;;;2.30;99.90;;;;;;5029367;28;20423;-47
2022/01/10 03:33:20;;;;;;;9.98;8.48;;;2.30;99.90;;;;;;5027104;28;20029;-47
2022/01/10 03:35:45;;;;;;;10.82;8.98;;;2.20;99.90;;;;;;5028736;28;20018;-46
2022/01/10 03:38:11;;;;;;;10.30;8.80;;;2.30;99.90;;;;;;5028807;28;20068;-47
2022/01/10 03:40:37;;;;;;;11.73;9.50;;;2.20;99.90;;;;;;5011001;28;20025;-49
2022/01/10 03:43:02;;;;;;;10.10;8.30;;;2.30;99.90;;;;;;5030603;28;20029;-47
2022/01/10 03:45:28;;;;;;;11.30;9.20;;;2.30;99.90;;;;;;5029857;28;20029;-49
2022/01/10 03:47:54;;;;;;;11.43;9.48;;;2.30;99.90;;;;;;5028341;28;20033;-47
2022/01/10 03:50:20;;;;;;;10.25;8.68;;;2.20;99.90;;;;;;5050038;22;20045;-56
2022/01/10 03:52:45;;;;;;;11.38;9.20;;;2.30;99.90;;;;;;5028416;28;20391;-54
2022/01/10 03:55:11;;;;;;;10.68;8.80;;;2.20;99.90;;;;;;5028830;28;20017;-54
2022/01/10 03:57:36;;;;;;;13.82;9.40;;;2.20;99.90;;;;;;5028970;28;20040;-56
2022/01/10 04:00:06;;;;;;;11.50;9.02;;;2.20;99.90;;;;;;5020513;28;20384;-55
2022/01/10 04:02:32;;;;;;;11.05;8.55;;;2.20;99.90;;;;;;5008160;28;20483;-53
2022/01/10 04:04:58;;;;;;;10.38;8.55;;;2.20;99.90;;;;;;5009277;28;20377;-55
2022/01/10 04:07:24;;;;;;;9.82;7.93;;;2.20;99.90;;;;;;5008624;28;20033;-54
2022/01/10 04:09:49;;;;;;;11.32;8.95;;;2.20;99.90;;;;;;5008318;28;20400;-56
2022/01/10 04:12:15;;;;;;;11.15;9.07;;;2.20;99.90;;;;;;5008027;28;20454;-55
2022/01/10 04:14:41;;;;;;;9.57;8.43;;;2.20;99.90;;;;;;5008598;28;20033;-57
2022/01/10 04:17:06;;;;;;;11.70;8.45;;;2.20;99.90;;;;;;5007174;28;20571;-54
2022/01/10 04:19:32;;;;;;;11.05;9.13;;;2.20;99.90;;;;;;5004677;28;20029;-55
2022/01/10 04:21:57;;;;;;;10.68;8.45;;;2.20;99.90;;;;;;5005926;28;20041;-54
2022/01/10 04:24:23;;;;;;;11.68;9.35;;;2.20;99.90;;;;;;5005917;28;20021;-55
2022/01/10 04:26:49;;;;;;;9.93;8.68;;;2.20;99.90;;;;;;5007778;28;20104;-56
2022/01/10 04:29:14;;;;;;;12.15;9.30;;;2.30;99.90;;;;;;5006368;28;20029;-57
2022/01/10 04:31:40;;;;;;;11.82;9.25;;;2.20;99.90;;;;;;5006119;28;20057;-53
2022/01/10 04:34:06;;;;;;;11.43;9.05;;;2.30;99.90;;;;;;5008608;28;20395;-56
2022/01/10 04:36:31;;;;;;;11.68;9.23;;;2.30;99.90;;;;;;5007710;28;20480;-55
2022/01/10 04:38:57;;;;;;;12.77;9.07;;;2.20;99.90;;;;;;5008610;28;20018;-57
2022/01/10 04:41:23;;;;;;;11.98;9.55;;;2.20;99.90;;;;;;5008495;28;20029;-55
2022/01/10 04:43:48;;;;;;;10.93;9.73;;;2.20;99.90;;;;;;5009166;28;20101;-55
2022/01/10 04:46:14;;;;;;;9.63;8.02;;;2.20;99.90;;;;;;5008730;28;20479;-54
2022/01/10 04:48:39;;;;;;;11.82;9.25;;;2.20;99.90;;;;;;5007508;28;20022;-55
2022/01/10 04:53:31;;;;;;;12.60;10.10;;;2.10;99.90;;;;;;5008028;28;20022;-56
2022/01/10 04:55:56;;;;;;;11.45;9.10;;;2.10;99.90;;;;;;5008253;28;20084;-56
2022/01/10 04:58:23;;;;;;;13.90;10.07;;;2.10;99.90;;;;;;5007539;28;20022;-54
2022/01/10 05:00:51;;;;;;;11.50;9.70;;;2.10;99.90;;;;;;5007729;28;20022;-56
2022/01/10 05:03:17;;;;;;;12.23;9.65;;;2.10;99.90;;;;;;5006003;28;20118;-51
2022/01/10 05:05:44;;;;;;;11.35;9.15;;;2.10;99.90;;;;;;5008155;28;20017;-54
2022/01/10 05:08:10;;;;;;;12.38;9.18;;;2.10;99.90;;;;;;5007513;28;20021;-53
2022/01/10 05:10:35;;;;;;;14.00;10.80;;;2.10;99.90;;;;;;5007063;28;20054;-56
2022/01/10 05:13:01;;;;;;;13.23;9.35;;;2.00;99.90;;;;;;5007340;28;20045;-55
2022/01/10 05:15:27;;;;;;;12.77;9.88;;;2.00;99.90;;;;;;5006185;28;20476;-56
2022/01/10 05:17:52;;;;;;;12.70;9.68;;;2.00;99.90;;;;;;5005756;28;20511;-57
2022/01/10 05:20:18;;;;;;;12.57;9.55;;;2.00;99.90;;;;;;5003276;28;20026;-57
2022/01/10 05:22:44;;;;;;;12.75;9.88;;;2.00;99.90;;;;;;5007559;28;20112;-56
2022/01/10 05:25:09;;;;;;;13.27;10.82;;;2.00;99.90;;;;;;5006281;28;20391;-53
2022/01/10 05:27:35;;;;;;;11.43;9.65;;;2.00;99.90;;;;;;5007302;28;20105;-53
2022/01/10 05:30:01;;;;;;;13.32;10.63;;;2.00;99.90;;;;;;5006811;28;20026;-55
2022/01/10 05:32:26;;;;;;;11.70;9.93;;;2.00;99.90;;;;;;5007489;28;20550;-52
2022/01/10 05:34:52;;;;;;;12.05;9.32;;;2.00;99.90;;;;;;5006101;28;20033;-55
2022/01/10 05:37:18;;;;;;;14.15;10.15;;;2.00;99.90;;;;;;5006919;28;20021;-52
2022/01/10 05:39:43;;;;;;;15.20;10.88;;;2.00;99.90;;;;;;5007137;28;20050;-57
2022/01/10 05:42:09;;;;;;;12.50;10.45;;;2.00;99.90;;;;;;5007650;28;20079;-52
2022/01/10 05:44:34;;;;;;;15.23;10.30;;;2.00;99.90;;;;;;5007263;28;20083;-55
2022/01/10 05:47:01;;;;;;;13.43;10.30;;;2.00;99.90;;;;;;5004712;28;20030;-53
2022/01/10 05:49:33;;;;;;;13.48;10.63;;;2.00;99.90;;;;;;5005263;28;20034;-55
2022/01/10 05:51:59;;;;;;;13.70;10.40;;;2.00;99.90;;;;;;5006832;28;20057;-53
2022/01/10 05:54:24;;;;;;;16.95;11.77;;;2.00;99.90;;;;;;5005801;28;20480;-53
2022/01/10 05:56:52;;;;;;;12.55;10.18;;;2.00;99.90;;;;;;5006817;28;20076;-56
2022/01/10 05:59:18;;;;;;;11.98;9.90;;;2.00;99.90;;;;;;5004828;28;20018;-53
2022/01/10 06:01:43;;;;;;;13.27;10.50;;;2.00;99.90;;;;;;5003239;28;20026;-55
2022/01/10 06:04:09;;;;;;;15.30;10.48;;;2.00;99.90;;;;;;5006610;28;20124;-54
2022/01/10 06:06:34;;;;;;;13.02;9.65;;;2.00;99.90;;;;;;5006766;28;20018;-54
2022/01/10 06:09:00;;;;;;;11.32;8.93;;;2.00;99.90;;;;;;5006307;28;20022;-57
2022/01/10 06:11:25;;;;;;;17.30;11.63;;;2.00;99.90;;;;;;5006643;28;20026;-54
2022/01/10 06:13:51;;;;;;;13.38;10.27;;;2.00;99.90;;;;;;5006481;28;20042;-55
2022/01/10 06:16:17;;;;;;;13.85;10.45;;;2.00;99.90;;;;;;5007526;28;20053;-53
2022/01/10 06:18:42;;;;;;;12.27;9.75;;;2.00;99.90;;;;;;5007608;28;20030;-53
2022/01/10 06:21:08;;;;;;;12.60;9.93;;;2.00;99.90;;;;;;5008103;28;20049;-53
2022/01/10 06:23:34;;;;;;;13.00;9.60;;;2.00;99.90;;;;;;5007820;28;20028;-52
2022/01/10 06:25:59;;;;;;;13.88;10.27;;;1.90;99.90;;;;;;5006845;28;20037;-53
2022/01/10 06:28:25;;;;;;;13.38;10.10;;;2.00;99.90;;;;;;5007165;28;20034;-55
2022/01/10 06:30:50;;;;;;;13.65;9.98;;;2.00;99.90;;;;;;4989589;28;20080;-56
2022/01/10 06:33:16;;;;;;;14.77;10.45;;;2.00;99.90;;;;;;5009136;28;20026;-53
2022/01/10 06:35:41;;;;;;;15.02;10.82;;;2.00;99.90;;;;;;5008677;28;20124;-55
2022/01/10 06:38:07;;;;;;;15.77;10.80;;;1.90;99.90;;;;;;5011122;28;20026;-56
2022/01/10 06:40:33;;;;;;;14.85;11.20;;;1.90;99.90;;;;;;4993420;28;20027;-55
2022/01/10 06:42:58;;;;;;;14.18;10.93;;;1.90;99.90;;;;;;5010885;28;20018;-56
2022/01/10 06:45:24;;;;;;;13.98;11.38;;;1.90;99.90;;;;;;5010158;28;20033;-52
2022/01/10 06:47:49;;;;;;;15.10;11.70;;;1.90;99.90;;;;;;5010165;28;20030;-56
2022/01/10 06:50:16;;;;;;;13.98;10.57;;;1.90;99.90;;;;;;5008750;28;20122;-53
2022/01/10 06:52:41;;;;;;;15.85;10.98;;;1.90;99.90;;;;;;5009637;28;20029;-55
2022/01/10 06:55:07;;;;;;;17.95;11.57;;;1.80;99.90;;;;;;5010089;28;20026;-55
2022/01/10 06:57:33;;;;;;;17.95;12.20;;;1.80;99.90;;;;;;5008990;28;20037;-52
2022/01/10 07:00:01;;;;;;;16.38;11.52;;;1.80;99.90;;;;;;5009137;28;20017;-52
2022/01/10 07:02:26;;;;;;;17.45;12.20;;;1.80;99.90;;;;;;5008585;28;20081;-55
2022/01/10 07:04:52;;;;;;;17.38;12.60;;;1.80;99.90;;;;;;5008258;28;20025;-53
2022/01/10 07:07:18;;;;;;;15.35;11.43;;;1.80;99.90;;;;;;5008535;28;20392;-51
2022/01/10 07:09:44;;;;;;;15.45;11.73;;;1.80;99.90;;;;;;5008740;28;20140;-56
2022/01/10 07:12:10;;;;;;;15.77;11.00;;;1.80;99.90;;;;;;5009159;28;20224;-55
2022/01/10 07:14:36;;;;;;;16.95;12.23;;;1.80;99.90;;;;;;5009333;28;20096;-55
2022/01/10 07:17:02;;;;;;;16.80;11.55;;;1.80;99.90;;;;;;5010968;28;20022;-53
2022/01/10 07:19:27;;;;;;;17.35;11.55;;;1.80;99.90;;;;;;5004692;28;20034;-53
2022/01/10 07:21:53;;;;;;;17.20;12.65;;;1.80;99.90;;;;;;5008728;28;20026;-54
2022/01/10 07:24:19;;;;;;;15.27;11.90;;;1.80;99.90;;;;;;5009186;28;20030;-51
2022/01/10 07:26:44;;;;;;;14.43;11.55;;;1.80;99.90;;;;;;5008940;28;20030;-52
2022/01/10 07:29:11;;;;;;;17.10;12.07;;;1.80;99.90;;;;;;5008512;28;20034;-53
2022/01/10 07:31:38;;;;;;;17.48;12.18;;;1.80;99.90;;;;;;4991597;28;20029;-53
2022/01/10 07:34:06;;;;;;;17.58;13.18;;;1.80;99.90;;;;;;5008552;28;20033;-52
2022/01/10 07:36:31;;;;;;;18.15;11.85;;;1.80;99.90;;;;;;5008634;28;20026;-52
2022/01/10 07:38:57;;;;;;;19.20;13.80;;;1.80;99.90;;;;;;5007968;28;20500;-55
2022/01/10 07:41:23;;;;;;;19.27;13.25;;;1.80;99.90;;;;;;5009118;28;20037;-52
2022/01/10 07:43:49;;;;;;;19.83;13.43;;;1.80;99.90;;;;;;5007403;28;20029;-54
2022/01/10 07:46:15;;;;;;;18.90;14.18;;;1.80;99.90;;;;;;5005969;28;20022;-54
2022/01/10 07:48:44;;;;;;;20.55;14.35;;;1.80;99.90;;;;;;5004568;28;20021;-54
2022/01/10 07:51:11;;;;;;;19.08;14.63;;;1.80;99.90;;;;;;5007751;28;20057;-51
2022/01/10 07:53:37;;;;;;;20.67;15.27;;;1.90;99.90;;;;;;5008623;28;20448;-55
2022/01/10 07:56:07;;;;;;;20.70;14.02;;;1.90;99.90;;;;;;4989610;28;20092;-53
2022/01/10 07:58:33;;;;;;;21.65;15.40;;;1.90;99.90;;;;;;5007870;28;20671;-52
2022/01/10 08:00:59;;;;;;;25.15;15.30;;;1.90;99.90;;;;;;5007210;28;20514;-56
2022/01/10 08:03:25;;;;;;;26.52;17.25;;;1.90;99.90;;;;;;5009798;28;20032;-55
2022/01/10 08:05:50;;;;;;;25.42;17.27;;;1.90;99.90;;;;;;5009725;28;20630;-56
2022/01/10 08:08:16;;;;;;;26.00;16.42;;;1.90;99.90;;;;;;5009505;28;20029;-55
2022/01/10 08:10:42;;;;;;;23.30;16.17;;;1.90;99.90;;;;;;5009690;28;20052;-56
2022/01/10 08:13:07;;;;;;;24.63;17.90;;;1.90;99.90;;;;;;5009797;28;20068;-53
2022/01/10 08:15:33;;;;;;;24.98;16.42;;;1.90;99.90;;;;;;5009414;28;20037;-52
2022/01/10 08:17:59;;;;;;;23.60;15.48;;;1.90;99.90;;;;;;5009234;28;20022;-56
2022/01/10 08:20:25;;;;;;;23.38;16.23;;;2.00;99.90;;;;;;5009002;28;20050;-55
2022/01/10 08:22:51;;;;;;;26.50;17.35;;;2.00;99.90;;;;;;5008087;28;20531;-54
2022/01/10 08:25:16;;;;;;;31.85;19.35;;;2.00;99.90;;;;;;5007515;28;20021;-53
2022/01/10 08:27:42;;;;;;;27.80;18.90;;;2.00;99.90;;;;;;5008871;28;20026;-54
2022/01/10 08:30:08;;;;;;;27.85;18.67;;;2.00;99.90;;;;;;5003130;28;20411;-54
2022/01/10 08:32:33;;;;;;;27.90;17.63;;;2.00;99.90;;;;;;5007584;28;20114;-54
2022/01/10 08:34:59;;;;;;;27.77;18.23;;;2.00;99.90;;;;;;5007955;28;20110;-51
2022/01/10 08:37:25;;;;;;;30.08;19.02;;;2.00;99.90;;;;;;5007350;28;20014;-53
2022/01/10 08:39:51;;;;;;;28.65;19.10;;;2.10;99.90;;;;;;5008238;28;20648;-57
2022/01/10 08:42:21;;;;;;;29.27;18.60;;;2.10;99.90;;;;;;4989760;28;20068;-54
2022/01/10 08:44:48;;;;;;;28.13;18.45;;;2.10;99.90;;;;;;5007024;28;20084;-53
2022/01/10 08:47:15;;;;;;;29.90;17.83;;;2.10;99.90;;;;;;5007149;28;20438;-53
2022/01/10 08:49:41;;;;;;;30.98;19.50;;;2.10;99.90;;;;;;5007181;28;20042;-55
2022/01/10 08:52:07;;;;;;;28.50;19.02;;;2.10;99.90;;;;;;5009777;28;20168;-56
2022/01/10 08:54:33;;;;;;;36.08;19.67;;;2.10;99.90;;;;;;5006655;28;20041;-53
2022/01/10 08:57:00;;;;;;;29.33;19.80;;;2.10;99.90;;;;;;5007260;28;20030;-57
2022/01/10 08:59:28;;;;;;;28.77;19.02;;;2.10;99.90;;;;;;5005090;28;20040;-54
2022/01/10 09:01:57;;;;;;;34.33;21.25;;;2.20;99.90;;;;;;5006916;28;20024;-51
2022/01/10 09:04:23;;;;;;;36.28;20.70;;;2.20;99.90;;;;;;5004747;28;20882;-54
2022/01/10 09:06:51;;;;;;;30.35;20.70;;;2.20;99.90;;;;;;5005312;28;20022;-53
2022/01/10 09:09:17;;;;;;;30.33;19.77;;;2.20;99.90;;;;;;5003126;28;20038;-53
2022/01/10 09:11:44;;;;;;;31.85;20.13;;;2.20;99.90;;;;;;5005327;28;20038;-53
2022/01/10 09:14:10;;;;;;;32.17;19.60;;;2.20;99.90;;;;;;5003926;28;20113;-53
2022/01/10 09:16:36;;;;;;;33.88;20.48;;;2.20;99.90;;;;;;5003073;28;20032;-54
2022/01/10 09:19:02;;;;;;;31.45;20.08;;;2.30;99.90;;;;;;5003149;28;20113;-52
2022/01/10 09:21:28;;;;;;;33.45;20.17;;;2.30;99.90;;;;;;5006833;28;20065;-55
2022/01/10 09:23:54;;;;;;;29.10;19.13;;;2.30;99.90;;;;;;5007145;28;20018;-53
2022/01/10 09:26:19;;;;;;;31.13;20.73;;;2.30;99.90;;;;;;5006883;28;20041;-53
2022/01/10 09:28:45;;;;;;;33.92;20.95;;;2.30;99.90;;;;;;5003799;28;20034;-54
2022/01/10 09:31:12;;;;;;;32.95;20.52;;;2.40;99.90;;;;;;5007580;28;20026;-52
2022/01/10 09:33:38;;;;;;;38.38;21.48;;;2.40;99.90;;;;;;5007026;28;20137;-54
2022/01/10 09:36:05;;;;;;;40.08;22.10;;;2.40;99.90;;;;;;5005064;28;20534;-55
2022/01/10 09:38:30;;;;;;;35.78;22.60;;;2.50;99.90;;;;;;5005153;28;20034;-52
2022/01/10 09:40:56;;;;;;;38.35;23.25;;;2.50;99.90;;;;;;5006718;28;20037;-55
2022/01/10 09:43:22;;;;;;;37.92;22.88;;;2.50;99.90;;;;;;5008284;28;20030;-53
2022/01/10 09:45:49;;;;;;;34.55;20.58;;;2.40;99.90;;;;;;5007154;28;20122;-53
2022/01/10 09:48:16;;;;;;;37.90;22.88;;;2.40;99.90;;;;;;5007205;28;20030;-54
2022/01/10 09:50:41;;;;;;;33.88;21.80;;;2.40;99.90;;;;;;5032148;22;20061;-58
2022/01/10 09:53:08;;;;;;;41.53;23.38;;;2.40;99.90;;;;;;5027232;28;20123;-56
2022/01/10 09:55:34;;;;;;;38.25;23.10;;;2.40;99.90;;;;;;5026375;28;20029;-59
2022/01/10 09:58:00;;;;;;;41.58;22.95;;;2.40;99.90;;;;;;5026157;28;20112;-56
2022/01/10 10:00:27;;;;;;;33.30;20.70;;;2.40;99.90;;;;;;5027173;28;20021;-57
2022/01/10 10:02:52;;;;;;;34.08;22.35;;;2.50;99.90;;;;;;5006425;28;20049;-57
2022/01/10 10:05:19;;;;;;;41.08;24.25;;;2.50;99.90;;;;;;5007693;28;20065;-59
2022/01/10 10:07:45;;;;;;;37.53;23.27;;;2.50;99.90;;;;;;5006036;28;20029;-58
2022/01/10 10:10:12;;;;;;;35.92;23.27;;;2.50;99.90;;;;;;5006448;28;20034;-58
2022/01/10 10:12:48;;;;;;;40.63;24.55;;;2.50;99.90;;;;;;5008314;28;20488;-57
2022/01/10 10:15:16;;;;;;;36.28;22.45;;;2.60;99.90;;;;;;5011678;28;20029;-58
2022/01/10 10:17:44;;;;;;;41.97;23.70;;;2.60;99.90;;;;;;4992041;28;20108;-54
2022/01/10 10:20:12;;;;;;;39.75;25.15;;;2.70;99.90;;;;;;5011426;28;20078;-58
2022/01/10 10:22:42;;;;;;;40.78;23.63;;;2.60;99.90;;;;;;5010120;28;20022;-58
2022/01/10 10:25:09;;;;;;;48.25;24.50;;;2.70;99.90;;;;;;5009861;28;20045;-57
2022/01/10 10:27:36;;;;;;;48.65;25.02;;;2.70;99.90;;;;;;5008390;28;20118;-58
2022/01/10 10:30:06;;;;;;;35.97;22.52;;;2.70;99.90;;;;;;5007844;28;20036;-57
2022/01/10 10:32:32;;;;;;;45.95;24.90;;;2.70;99.90;;;;;;5008144;28;20174;-58
2022/01/10 10:34:58;;;;;;;39.65;23.67;;;2.80;99.90;;;;;;5010782;28;20037;-58
2022/01/10 10:37:27;;;;;;;43.03;24.73;;;2.80;99.90;;;;;;5010059;28;20093;-57
2022/01/10 10:39:56;;;;;;;40.47;24.52;;;2.90;99.90;;;;;;4992421;28;20029;-57
2022/01/10 10:42:27;;;;;;;40.78;23.02;;;2.80;99.90;;;;;;5009685;28;20556;-57
2022/01/10 10:44:52;;;;;;;41.45;24.55;;;2.90;99.90;;;;;;5009845;28;20480;-58
2022/01/10 10:47:21;;;;;;;38.45;25.13;;;3.00;99.90;;;;;;5010893;28;20037;-57
2022/01/10 10:49:50;;;;;;;41.92;24.23;;;3.00;99.90;;;;;;5009908;28;20049;-58
2022/01/10 10:52:16;;;;;;;41.22;24.70;;;3.00;99.90;;;;;;5010328;28;20422;-56
2022/01/10 10:54:42;;;;;;;38.05;24.60;;;3.00;99.90;;;;;;5010021;28;20026;-58
2022/01/10 10:57:09;;;;;;;41.58;25.15;;;3.00;99.90;;;;;;4992194;28;20117;-59
2022/01/10 10:59:39;;;;;;;39.85;25.65;;;3.00;99.90;;;;;;5009927;28;20060;-58
2022/01/10 11:02:05;;;;;;;38.60;23.67;;;3.00;99.90;;;;;;5009329;28;20022;-57
2022/01/10 11:04:31;;;;;;;40.67;25.50;;;3.00;99.90;;;;;;5006694;28;20113;-58
2022/01/10 11:06:58;;;;;;;42.97;26.60;;;3.10;99.90;;;;;;5010166;28;20076;-58
2022/01/10 11:09:25;;;;;;;40.17;25.38;;;3.00;99.90;;;;;;4989909;28;20341;-58
2022/01/10 11:11:50;;;;;;;45.75;25.50;;;3.00;99.90;;;;;;5006397;28;20026;-58
2022/01/10 11:14:18;;;;;;;41.75;25.80;;;3.10;99.90;;;;;;5008020;28;20021;-58
2022/01/10 11:16:46;;;;;;;38.38;24.02;;;3.10;99.90;;;;;;5008954;28;20046;-56
2022/01/10 11:19:21;;;;;;;46.85;24.08;;;3.10;99.90;;;;;;5009128;28;20104;-58
2022/01/10 11:22:08;;;;;;;43.00;25.10;;;3.10;99.90;;;;;;5009143;28;20021;-57
2022/01/10 11:24:53;;;;;;;35.90;23.73;;;3.10;99.90;;;;;;4992640;28;20546;-58
2022/01/10 11:27:28;;;;;;;31.27;22.10;;;3.20;99.90;;;;;;5009805;28;20044;-58
2022/01/10 11:29:56;;;;;;;35.33;21.17;;;3.20;99.90;;;;;;4993014;28;20028;-58
2022/01/10 11:32:41;;;;;;;33.97;21.35;;;3.20;99.90;;;;;;4989666;28;20603;-58
2022/01/10 11:35:07;;;;;;;32.45;19.85;;;3.20;99.90;;;;;;5009361;28;20135;-58
2022/01/10 11:37:33;;;;;;;32.28;21.13;;;3.20;99.90;;;;;;5009844;28;20026;-58
2022/01/10 11:39:59;;;;;;;31.75;19.83;;;3.20;99.90;;;;;;5008911;28;20566;-58
2022/01/10 11:42:25;;;;;;;35.30;21.33;;;3.10;99.90;;;;;;5009810;28;20037;-58
2022/01/10 11:45:11;;;;;;;34.47;21.48;;;3.20;99.90;;;;;;5007172;28;20096;-58
2022/01/10 11:48:04;;;;;;;36.83;23.20;;;3.20;99.90;;;;;;5009072;28;20022;-58
2022/01/10 11:50:31;;;;;;;36.42;22.77;;;3.20;99.90;;;;;;5005430;28;20454;-58
2022/01/10 11:53:01;;;;;;;34.45;21.15;;;3.20;99.90;;;;;;5008969;28;20060;-58
2022/01/10 11:55:41;;;;;;;34.83;21.63;;;3.20;99.90;;;;;;5007971;28;20038;-60
2022/01/10 11:58:25;;;;;;;34.30;22.58;;;3.30;99.90;;;;;;5006376;28;20053;-57
2022/01/10 12:01:04;;;;;;;35.63;22.42;;;3.30;99.90;;;;;;5008901;28;20029;-58
2022/01/10 12:03:31;;;;;;;34.58;23.40;;;3.30;99.90;;;;;;5007626;28;20502;-58
2022/01/10 12:05:57;;;;;;;35.67;22.25;;;3.30;99.90;;;;;;5006564;28;20114;-58
2022/01/10 12:08:22;;;;;;;33.53;22.45;;;3.40;99.90;;;;;;5006244;28;20117;-58
2022/01/10 12:10:49;;;;;;;42.95;24.55;;;3.40;99.90;;;;;;5006869;28;20029;-58
2022/01/10 12:13:15;;;;;;;37.55;23.60;;;3.40;99.90;;;;;;5009499;28;20021;-58
2022/01/10 12:15:41;;;;;;;37.80;24.58;;;3.40;99.90;;;;;;4990011;28;20029;-58
2022/01/10 12:18:08;;;;;;;38.08;22.98;;;3.40;99.90;;;;;;5006860;28;20033;-59
2022/01/10 12:20:35;;;;;;;39.55;23.55;;;3.40;99.90;;;;;;5006268;28;20030;-57
2022/01/10 12:23:00;;;;;;;34.63;22.65;;;3.30;99.90;;;;;;5009344;28;20368;-58
2022/01/10 12:25:27;;;;;;;39.75;24.77;;;3.30;99.90;;;;;;5008713;28;20022;-58
2022/01/10 12:27:54;;;;;;;40.03;22.85;;;3.30;99.90;;;;;;5009081;28;20484;-58
2022/01/10 12:30:21;;;;;;;34.45;22.42;;;3.30;99.90;;;;;;5003821;28;20057;-57
2022/01/10 12:32:48;;;;;;;40.85;23.25;;;3.30;99.90;;;;;;5008102;28;20026;-58
2022/01/10 12:35:15;;;;;;;36.33;21.75;;;3.30;99.90;;;;;;5007679;28;20030;-58
2022/01/10 12:37:41;;;;;;;35.63;21.42;;;3.30;99.90;;;;;;5007377;28;20026;-58
2022/01/10 12:40:10;;;;;;;35.60;21.83;;;3.30;99.90;;;;;;5009010;28;20586;-56
2022/01/10 12:42:36;;;;;;;30.25;20.40;;;3.30;99.90;;;;;;5007863;28;20022;-58
2022/01/10 12:45:01;;;;;;;32.75;20.40;;;3.30;99.90;;;;;;5007088;28;20037;-58
2022/01/10 12:47:27;;;;;;;33.25;21.25;;;3.40;99.90;;;;;;5008379;28;20484;-58
2022/01/10 12:49:53;;;;;;;36.22;20.60;;;3.30;99.90;;;;;;4990394;28;20460;-58
2022/01/10 12:52:21;;;;;;;39.33;21.70;;;3.40;99.90;;;;;;4989763;28;20518;-57